createdAt,value
2023-04-18T00:02:24.018Z,100352.81
2023-04-18T00:05:27.946Z,100351.09
2023-04-18T00:08:31.894Z,100351.06
2023-04-18T00:11:35.645Z,100346.66
2023-04-18T00:14:38.332Z,100347.66
2023-04-18T00:17:41.196Z,100347.59
2023-04-18T00:20:43.876Z,100347.66
2023-04-18T00:23:46.680Z,100349.34
2023-04-18T00:26:49.304Z,100353.69
2023-04-18T00:29:53.201Z,100351.78
2023-04-18T00:32:55.756Z,100357.00
2023-04-18T00:36:01.273Z,100358.66
2023-04-18T00:39:04.111Z,100350.78
2023-04-18T00:42:07.347Z,100351.59
2023-04-18T00:45:10.588Z,100347.16
2023-04-18T00:48:14.262Z,100346.28
2023-04-18T00:51:16.849Z,100351.50
2023-04-18T00:54:20.260Z,100348.81
2023-04-18T00:57:22.965Z,100347.84
2023-04-18T01:00:26.142Z,100352.97
2023-04-18T01:03:28.796Z,100349.44
2023-04-18T01:06:32.188Z,100347.62
2023-04-18T01:09:35.019Z,100345.75
2023-04-18T01:12:38.435Z,100348.38
2023-04-18T01:15:43.089Z,100352.72
2023-04-18T01:18:46.424Z,100344.00
2023-04-18T01:21:53.636Z,100344.03
2023-04-18T01:24:57.262Z,100345.72
2023-04-18T01:28:00.991Z,100337.78
2023-04-18T01:31:04.591Z,100356.81
2023-04-18T01:34:07.758Z,100344.56
2023-04-18T01:37:10.633Z,100347.06
2023-04-18T01:40:15.110Z,100347.12
2023-04-18T01:43:19.739Z,100341.03
2023-04-18T01:46:22.722Z,100351.59
2023-04-18T01:49:25.633Z,100349.03
2023-04-18T01:52:28.823Z,100349.03
2023-04-18T01:55:31.699Z,100347.31
2023-04-18T01:58:35.010Z,100348.38
2023-04-18T02:01:37.861Z,100344.09
2023-04-18T02:04:40.881Z,100351.91
2023-04-18T02:07:45.740Z,100351.94
2023-04-18T02:10:48.765Z,100352.91
2023-04-18T02:13:52.148Z,100359.00
2023-04-18T02:16:56.080Z,100351.94
2023-04-18T02:20:01.181Z,100353.81
2023-04-18T02:23:06.120Z,100365.00
2023-04-18T02:26:08.560Z,100371.16
2023-04-18T02:29:11.721Z,100367.56
2023-04-18T02:32:14.489Z,100363.16
2023-04-18T02:35:23.867Z,100365.78
2023-04-18T02:38:27.979Z,100365.78
2023-04-18T02:41:31.250Z,100375.34
2023-04-18T02:44:33.914Z,100371.66
2023-04-18T02:47:51.302Z,100378.56
2023-04-18T02:51:05.982Z,100384.59
2023-04-18T02:54:10.017Z,100388.75
2023-04-18T02:57:14.693Z,100385.03
2023-04-18T03:00:19.766Z,100387.59
2023-04-18T03:03:26.774Z,100384.97
2023-04-18T03:06:30.205Z,100378.84
2023-04-18T03:09:40.148Z,100381.34
2023-04-18T03:12:43.530Z,100380.28
2023-04-18T03:15:46.609Z,100383.84
2023-04-18T03:18:50.009Z,100382.19
2023-04-18T03:21:53.571Z,100380.50
2023-04-18T03:25:00.034Z,100383.06
2023-04-18T03:28:08.837Z,100382.25
2023-04-18T03:31:12.786Z,100383.09
2023-04-18T03:34:17.031Z,100384.88
2023-04-18T03:37:20.517Z,100381.41
2023-04-18T03:40:25.354Z,100383.09
2023-04-18T03:43:36.611Z,100378.75
2023-04-18T03:46:40.024Z,100377.88
2023-04-18T03:49:43.337Z,100377.91
2023-04-18T03:52:47.995Z,100379.53
2023-04-18T03:55:53.763Z,100382.19
2023-04-18T03:58:59.091Z,100385.66
2023-04-18T04:02:04.194Z,100381.25
2023-04-18T04:05:12.044Z,100388.16
2023-04-18T04:08:16.737Z,100390.91
2023-04-18T04:11:21.130Z,100390.94
2023-04-18T04:14:25.790Z,100397.09
2023-04-18T04:17:29.161Z,100396.13
2023-04-18T04:20:35.009Z,100396.28
2023-04-18T04:23:42.775Z,100400.53
2023-04-18T04:26:48.855Z,100401.25
2023-04-18T04:29:54.721Z,100418.72
2023-04-18T04:32:59.952Z,100397.63
2023-04-18T04:36:03.508Z,100414.28
2023-04-18T04:39:12.797Z,100416.81
2023-04-18T04:42:25.309Z,100418.62
2023-04-18T04:45:35.881Z,100418.62
2023-04-18T04:48:46.017Z,100430.00
2023-04-18T04:51:51.374Z,100429.16
2023-04-18T04:54:56.404Z,100430.00
2023-04-18T04:58:02.393Z,100427.44
2023-04-18T05:01:13.724Z,100433.59
2023-04-18T05:04:19.695Z,100434.41
2023-04-18T05:07:25.317Z,100439.69
2023-04-18T05:10:37.283Z,100440.66
2023-04-18T05:13:49.146Z,100434.59
2023-04-18T05:16:52.765Z,100439.75
2023-04-18T05:19:55.842Z,100439.81
2023-04-18T05:23:02.257Z,100450.94
2023-04-18T05:26:07.194Z,100446.66
2023-04-18T05:29:12.005Z,100452.72
2023-04-18T05:32:20.816Z,100451.06
2023-04-18T05:35:24.222Z,100456.25
2023-04-18T05:38:27.930Z,100457.94
2023-04-18T05:41:31.096Z,100452.53
2023-04-18T05:44:34.361Z,100461.25
2023-04-18T05:47:37.553Z,100458.72
2023-04-18T05:50:42.176Z,100469.06
2023-04-18T05:53:48.997Z,100462.09
2023-04-18T05:56:54.934Z,100466.56
2023-04-18T06:00:00.706Z,100465.19
2023-04-18T06:03:22.384Z,100465.91
2023-04-18T06:06:28.144Z,100471.88
2023-04-18T06:09:32.147Z,100467.06
2023-04-18T06:12:36.507Z,100475.19
2023-04-18T06:15:39.891Z,100471.03
2023-04-18T06:18:47.317Z,100476.47
2023-04-18T06:21:55.691Z,100471.50
2023-04-18T06:24:59.788Z,100483.94
2023-04-18T06:28:04.667Z,100478.19
2023-04-18T06:31:09.776Z,100478.66
2023-04-18T06:34:14.208Z,100479.91
2023-04-18T06:37:19.163Z,100486.34
2023-04-18T06:40:30.661Z,100483.06
2023-04-18T06:43:39.989Z,100482.66
2023-04-18T06:46:45.868Z,100481.13
2023-04-18T06:49:49.096Z,100480.75
2023-04-18T06:52:52.257Z,100483.69
2023-04-18T06:55:55.657Z,100489.41
2023-04-18T06:58:58.516Z,100482.00
2023-04-18T07:02:03.833Z,100496.09
2023-04-18T07:05:10.960Z,100500.72
2023-04-18T07:08:14.205Z,100501.50
2023-04-18T07:11:19.708Z,100502.91
2023-04-18T07:14:25.488Z,100503.75
2023-04-18T07:17:29.260Z,100505.91
2023-04-18T07:20:32.782Z,100498.03
2023-04-18T07:23:36.947Z,100489.09
2023-04-18T07:26:41.005Z,100505.09
2023-04-18T07:29:43.738Z,100507.00
2023-04-18T07:32:50.401Z,100498.59
2023-04-18T07:35:56.061Z,100512.03
2023-04-18T07:38:59.461Z,100510.47
2023-04-18T07:42:06.933Z,100513.84
2023-04-18T07:45:13.728Z,100519.59
2023-04-18T07:48:28.268Z,100522.28
2023-04-18T07:51:31.919Z,100517.38
2023-04-18T07:54:36.863Z,100510.56
2023-04-18T07:57:45.901Z,100516.47
2023-04-18T08:00:50.798Z,100519.88
2023-04-18T08:04:04.971Z,100520.25
2023-04-18T08:07:09.247Z,100531.56
2023-04-18T08:10:12.914Z,100529.78
2023-04-18T08:13:16.820Z,100520.25
2023-04-18T08:16:21.268Z,100525.53
2023-04-18T08:19:27.486Z,100516.22
2023-04-18T08:22:57.449Z,100524.97
2023-04-18T08:26:07.735Z,100523.38
2023-04-18T08:29:13.878Z,100518.22
2023-04-18T08:32:16.962Z,100531.38
2023-04-18T08:35:21.747Z,100535.50
2023-04-18T08:38:25.363Z,100537.16
2023-04-18T08:41:40.133Z,100536.38
2023-04-18T08:44:45.341Z,100526.88
2023-04-18T08:47:49.992Z,100536.94
2023-04-18T08:50:57.589Z,100532.25
2023-04-18T08:54:04.652Z,100535.87
2023-04-18T08:57:13.770Z,100530.16
2023-04-18T09:00:19.021Z,100533.25
2023-04-18T09:03:44.214Z,100531.19
2023-04-18T09:06:54.722Z,100533.91
2023-04-18T09:09:58.350Z,100523.91
2023-04-18T09:13:04.504Z,100523.03
2023-04-18T09:16:08.730Z,100528.25
2023-04-18T09:19:21.800Z,100532.28
2023-04-18T09:22:24.748Z,100533.19
2023-04-18T09:25:45.317Z,100530.66
2023-04-18T09:28:53.971Z,100533.34
2023-04-18T09:32:01.839Z,100530.06
2023-04-18T09:35:06.469Z,100534.72
2023-04-18T09:38:11.741Z,100539.81
2023-04-18T09:41:19.137Z,100534.69
2023-04-18T09:44:25.804Z,100536.44
2023-04-18T09:47:32.673Z,100548.00
2023-04-18T09:50:41.934Z,100518.91
2023-04-18T09:53:50.310Z,100543.47
2023-04-18T09:56:56.490Z,100537.41
2023-04-18T10:00:17.130Z,100535.75
2023-04-18T10:03:24.853Z,100523.41
2023-04-18T10:06:28.919Z,100518.16
2023-04-18T10:09:46.728Z,100522.53
2023-04-18T10:12:52.237Z,100524.38
2023-04-18T10:15:56.685Z,100524.34
2023-04-18T10:19:25.426Z,100520.81
2023-04-18T10:22:30.959Z,100525.22
2023-04-18T10:25:39.973Z,100531.41
2023-04-18T10:28:55.190Z,100528.69
2023-04-18T10:32:06.311Z,100528.69
2023-04-18T10:35:11.009Z,100528.72
2023-04-18T10:38:23.525Z,100527.81
2023-04-18T10:41:33.302Z,100519.00
2023-04-18T10:44:38.072Z,100522.50
2023-04-18T10:47:43.033Z,100521.66
2023-04-18T10:51:15.847Z,100516.38
2023-04-18T10:54:43.254Z,100517.25
2023-04-18T10:57:59.968Z,100518.91
2023-04-18T11:01:06.234Z,100521.66
2023-04-18T11:04:16.160Z,100504.94
2023-04-18T11:07:36.209Z,100519.03
2023-04-18T11:10:41.008Z,100523.34
2023-04-18T11:13:57.584Z,100523.38
2023-04-18T11:17:25.530Z,100518.91
2023-04-18T11:20:30.144Z,100523.31
2023-04-18T11:23:33.117Z,100519.81
2023-04-18T11:26:45.971Z,100525.09
2023-04-18T11:29:54.078Z,100524.22
2023-04-18T11:32:59.050Z,100522.53
2023-04-18T11:36:03.497Z,100529.59
2023-04-18T11:39:12.733Z,100536.63
2023-04-18T11:42:28.758Z,100522.50
2023-04-18T11:45:32.000Z,100530.47
2023-04-18T11:48:48.040Z,100523.44
2023-04-18T11:51:54.742Z,100517.31
2023-04-18T11:55:18.640Z,100526.13
2023-04-18T11:58:32.756Z,100512.00
2023-04-18T12:01:41.801Z,100514.66
2023-04-18T12:04:58.541Z,100518.19
2023-04-18T12:08:21.498Z,100520.78
2023-04-18T12:11:26.977Z,100515.50
2023-04-18T12:14:44.655Z,100512.84
2023-04-18T12:17:54.829Z,100502.25
2023-04-18T12:21:04.980Z,100511.87
2023-04-18T12:24:18.464Z,100526.91
2023-04-18T12:27:48.040Z,100510.19
2023-04-18T12:30:59.690Z,100517.28
2023-04-18T12:34:06.928Z,100516.41
2023-04-18T12:37:10.055Z,100519.03
2023-04-18T12:40:18.976Z,100516.38
2023-04-18T12:43:25.742Z,100502.31
2023-04-18T12:46:35.898Z,100509.13
2023-04-18T12:49:48.671Z,100503.94
2023-04-18T12:52:54.383Z,100505.75
2023-04-18T12:56:02.563Z,100505.84
2023-04-18T12:59:12.938Z,100511.09
2023-04-18T13:02:25.801Z,100499.66
2023-04-18T13:05:33.560Z,100514.66
2023-04-18T13:08:50.649Z,100500.53
2023-04-18T13:11:55.498Z,100493.50
2023-04-18T13:14:58.588Z,100494.37
2023-04-18T13:18:07.991Z,100502.31
2023-04-18T13:21:12.371Z,100517.28
2023-04-18T13:24:19.945Z,100502.28
2023-04-18T13:27:24.986Z,100506.72
2023-04-18T13:30:30.440Z,100502.28
2023-04-18T13:33:34.792Z,100500.53
2023-04-18T13:36:40.646Z,100518.16
2023-04-18T13:39:49.009Z,100504.03
2023-04-18T13:42:52.770Z,100507.59
2023-04-18T13:45:55.811Z,100503.19
2023-04-18T13:49:01.164Z,100499.69
2023-04-18T13:52:08.277Z,100499.62
2023-04-18T13:55:13.705Z,100512.72
2023-04-18T13:58:20.025Z,100513.34
2023-04-18T14:01:23.633Z,100504.53
2023-04-18T14:04:27.643Z,100500.38
2023-04-18T14:07:31.764Z,100501.28
2023-04-18T14:10:40.796Z,100503.94
2023-04-18T14:13:45.789Z,100500.41
2023-04-18T14:16:50.911Z,100501.31
2023-04-18T14:20:05.120Z,100506.56
2023-04-18T14:23:09.017Z,100510.94
2023-04-18T14:26:14.656Z,100494.22
2023-04-18T14:29:26.965Z,100513.62
2023-04-18T14:32:35.486Z,100510.09
2023-04-18T14:35:52.956Z,100506.56
2023-04-18T14:38:56.567Z,100518.87
2023-04-18T14:42:08.615Z,100507.44
2023-04-18T14:45:27.751Z,100512.69
2023-04-18T14:48:32.191Z,100515.37
2023-04-18T14:51:40.709Z,100509.19
2023-04-18T14:54:53.819Z,100511.84
2023-04-18T14:58:04.463Z,100517.12
2023-04-18T15:01:19.627Z,100504.81
2023-04-18T15:04:23.191Z,100506.56
2023-04-18T15:07:30.799Z,100510.09
2023-04-18T15:10:47.624Z,100503.06
2023-04-18T15:14:01.805Z,100503.03
2023-04-18T15:17:09.767Z,100512.72
2023-04-18T15:20:13.961Z,100498.53
2023-04-18T15:23:27.927Z,100505.63
2023-04-18T15:26:33.154Z,100498.53
2023-04-18T15:29:36.896Z,100502.94
2023-04-18T15:32:42.232Z,100506.34
2023-04-18T15:35:52.672Z,100501.03
2023-04-18T15:39:04.749Z,100501.00
2023-04-18T15:42:14.289Z,100501.00
2023-04-18T15:45:28.538Z,100505.37
2023-04-18T15:48:34.485Z,100507.97
2023-04-18T15:51:54.756Z,100505.28
2023-04-18T15:54:58.700Z,100505.28
2023-04-18T15:58:04.680Z,100502.56
2023-04-18T16:01:17.786Z,100514.78
2023-04-18T16:04:27.147Z,100512.91
2023-04-18T16:07:30.765Z,100506.66
2023-04-18T16:10:40.810Z,100509.25
2023-04-18T16:13:45.429Z,100510.09
2023-04-18T16:16:55.767Z,100513.53
2023-04-18T16:20:12.765Z,100514.31
2023-04-18T16:23:28.643Z,100521.22
2023-04-18T16:26:44.839Z,100522.09
2023-04-18T16:29:50.703Z,100529.91
2023-04-18T16:32:54.485Z,100524.59
2023-04-18T16:35:59.258Z,100532.50
2023-04-18T16:39:16.795Z,100530.66
2023-04-18T16:42:22.789Z,100528.84
2023-04-18T16:45:26.690Z,100527.06
2023-04-18T16:48:30.581Z,100532.31
2023-04-18T16:51:37.411Z,100529.66
2023-04-18T16:54:42.710Z,100525.28
2023-04-18T16:57:53.701Z,100527.94
2023-04-18T17:01:11.654Z,100533.19
2023-04-18T17:04:25.008Z,100535.84
2023-04-18T17:07:31.928Z,100538.44
2023-04-18T17:10:46.067Z,100534.91
2023-04-18T17:13:57.625Z,100533.94
2023-04-18T17:17:07.693Z,100534.78
2023-04-18T17:20:13.229Z,100531.16
2023-04-18T17:23:25.848Z,100533.81
2023-04-18T17:26:41.728Z,100528.44
2023-04-18T17:29:52.619Z,100523.84
2023-04-18T17:33:04.976Z,100529.84
2023-04-18T17:36:14.864Z,100526.19
2023-04-18T17:39:22.987Z,100534.81
2023-04-18T17:42:31.990Z,100538.16
2023-04-18T17:45:36.131Z,100535.44
2023-04-18T17:48:49.679Z,100546.59
2023-04-18T17:52:09.622Z,100546.44
2023-04-18T17:55:14.324Z,100558.41
2023-04-18T17:58:22.549Z,100559.03
2023-04-18T18:01:34.827Z,100559.63
2023-04-18T18:04:52.848Z,100562.00
2023-04-18T18:07:58.830Z,100563.47
2023-04-18T18:11:02.834Z,100565.03
2023-04-18T18:14:06.839Z,100565.78
2023-04-18T18:17:11.618Z,100575.25
2023-04-18T18:20:15.964Z,100570.75
2023-04-18T18:23:31.776Z,100574.12
2023-04-18T18:27:00.927Z,100577.50
2023-04-18T18:30:19.678Z,100571.97
2023-04-18T18:33:39.776Z,100579.59
2023-04-18T18:36:48.813Z,100568.97
2023-04-18T18:40:01.722Z,100583.63
2023-04-18T18:43:09.485Z,100573.03
2023-04-18T18:46:23.349Z,100580.88
2023-04-18T18:49:30.853Z,100578.06
2023-04-18T18:52:39.747Z,100575.31
2023-04-18T18:55:52.216Z,100576.06
2023-04-18T18:59:01.828Z,100584.56
2023-04-18T19:02:17.571Z,100585.09
2023-04-18T19:05:24.184Z,100588.41
2023-04-18T19:08:39.658Z,100587.47
2023-04-18T19:11:44.617Z,100595.38
2023-04-18T19:14:53.040Z,100602.44
2023-04-18T19:18:10.975Z,100613.72
2023-04-18T19:21:18.002Z,100628.69
2023-04-18T19:24:21.462Z,100634.16
2023-04-18T19:27:29.721Z,100629.63
2023-04-18T19:30:42.886Z,100636.13
2023-04-18T19:33:46.579Z,100633.03
2023-04-18T19:37:07.664Z,100631.25
2023-04-18T19:40:16.117Z,100635.66
2023-04-18T19:43:29.670Z,100637.25
2023-04-18T19:46:35.122Z,100638.13
2023-04-18T19:49:58.389Z,100633.81
2023-04-18T19:53:13.712Z,100640.78
2023-04-18T19:56:30.772Z,100633.75
2023-04-18T19:59:35.765Z,100638.91
2023-04-18T20:02:41.895Z,100639.75
2023-04-18T20:05:45.545Z,100643.25
2023-04-18T20:08:54.722Z,100643.19
2023-04-18T20:12:07.133Z,100639.66
2023-04-18T20:15:12.027Z,100651.88
2023-04-18T20:18:26.728Z,100651.06
2023-04-18T20:21:40.690Z,100650.97
2023-04-18T20:24:52.862Z,100656.41
2023-04-18T20:27:59.252Z,100649.34
2023-04-18T20:31:12.812Z,100654.59
2023-04-18T20:34:17.472Z,100649.31
2023-04-18T20:37:24.599Z,100657.97
2023-04-18T20:40:29.413Z,100655.34
2023-04-18T20:43:42.101Z,100651.75
2023-04-18T20:46:48.348Z,100656.06
2023-04-18T20:49:52.222Z,100660.34
2023-04-18T20:52:57.853Z,100650.69
2023-04-18T20:56:05.300Z,100659.47
2023-04-18T20:59:10.339Z,100654.28
2023-04-18T21:02:17.792Z,100668.38
2023-04-18T21:05:23.456Z,100650.87
2023-04-18T21:08:33.670Z,100648.22
2023-04-18T21:11:36.264Z,100632.63
2023-04-18T21:14:39.875Z,100631.75
2023-04-18T21:17:43.011Z,100629.00
2023-04-18T21:20:50.768Z,100635.81
2023-04-18T21:23:53.699Z,100633.91
2023-04-18T21:27:01.736Z,100627.66
2023-04-18T21:30:07.414Z,100626.69
2023-04-18T21:33:14.309Z,100630.94
2023-04-18T21:36:19.018Z,100627.28
2023-04-18T21:39:23.282Z,100628.88
2023-04-18T21:42:28.771Z,100628.62
2023-04-18T21:45:31.904Z,100621.50
2023-04-18T21:48:35.227Z,100619.59
2023-04-18T21:51:38.399Z,100623.87
2023-04-18T21:54:41.921Z,100634.25
2023-04-18T21:57:57.225Z,100623.56
2023-04-18T22:01:10.468Z,100627.78
2023-04-18T22:04:16.139Z,100631.00
2023-04-18T22:07:20.132Z,100627.47
2023-04-18T22:10:23.067Z,100630.97
2023-04-18T22:13:34.704Z,100628.38
2023-04-18T22:16:39.067Z,100627.53
2023-04-18T22:19:44.809Z,100620.56
2023-04-18T22:22:47.939Z,100622.34
2023-04-18T22:25:54.944Z,100616.22
2023-04-18T22:28:59.001Z,100616.25
2023-04-18T22:32:03.004Z,100613.63
2023-04-18T22:35:06.631Z,100608.34
2023-04-18T22:38:10.522Z,100612.66
2023-04-18T22:41:16.622Z,100614.25
2023-04-18T22:44:19.536Z,100608.97
2023-04-18T22:47:22.976Z,100609.91
2023-04-18T22:50:26.284Z,100602.94
2023-04-18T22:53:29.521Z,100603.78
2023-04-18T22:56:31.995Z,100599.34
2023-04-18T22:59:35.937Z,100597.56
2023-04-18T23:02:39.219Z,100592.28
2023-04-18T23:05:43.427Z,100586.19
2023-04-18T23:08:46.012Z,100583.56
2023-04-18T23:11:48.810Z,100580.00
2023-04-18T23:14:51.457Z,100572.13
2023-04-18T23:17:54.511Z,100569.50
2023-04-18T23:20:57.234Z,100567.72
2023-04-18T23:24:00.494Z,100570.31
2023-04-18T23:27:03.643Z,100564.22
2023-04-18T23:30:12.320Z,100559.84
2023-04-18T23:33:15.328Z,100551.94
2023-04-18T23:36:18.431Z,100549.28
2023-04-18T23:39:21.906Z,100551.88
2023-04-18T23:42:25.505Z,100544.91
2023-04-18T23:45:31.761Z,100545.75
2023-04-18T23:48:39.160Z,100537.91
2023-04-18T23:51:41.787Z,100534.44
2023-04-18T23:54:45.406Z,100532.69
2023-04-18T23:57:49.215Z,100529.19
